« Back
NWS Peachtree City, Ga » Text Product » AHN Terminal Aerodrome Forecast


Printer-friendly Version
Current Version              Previous Versions:   1  2  3  4  5  6  7  8  9  

Terminal Aerodrome Forecast

469
FTAK31 PAJN 031140
TAFAHN
TAF
PAHN 031140Z 0312/0412 VRB04KT P6SM BKN060
     FM031500 VRB04KT P6SM SCT060
     FM032000 12009G15KT P6SM SCT100
     FM040300 10009KT P6SM SCT060
     FM040800 09006KT P6SM BKN060
      AMD LTD TO CLD VIS AND WIND=



USA.gov is the U.S. government's official web portal to all federal, state and local government web resources and services.